sensor_id;sensor_type;location;lat;lon;timestamp;pressure;altitude;pressure_sealevel;temperature;humidity
73240;BME280;61452;40.054;4.110;2023-05-15T00:02:17;101615.97;;;19.94;58.00
73240;BME280;61452;40.054;4.110;2023-05-15T00:07:19;101613.31;;;19.94;58.13
73240;BME280;61452;40.054;4.110;2023-05-15T00:12:21;101605.31;;;19.94;58.18
73240;BME280;61452;40.054;4.110;2023-05-15T00:17:24;101595.53;;;19.94;58.54
73240;BME280;61452;40.054;4.110;2023-05-15T00:22:26;101585.72;;;19.95;58.71
73240;BME280;61452;40.054;4.110;2023-05-15T00:27:28;101570.00;;;19.92;58.87
73240;BME280;61452;40.054;4.110;2023-05-15T00:32:31;101570.97;;;19.91;59.12
73240;BME280;61452;40.054;4.110;2023-05-15T00:37:33;101562.72;;;19.94;59.00
73240;BME280;61452;40.054;4.110;2023-05-15T00:42:35;101561.75;;;19.95;58.93
73240;BME280;61452;40.054;4.110;2023-05-15T00:47:39;101554.03;;;19.92;59.59
73240;BME280;61452;40.054;4.110;2023-05-15T00:52:42;101555.84;;;19.91;59.80
73240;BME280;61452;40.054;4.110;2023-05-15T00:57:44;101535.50;;;19.90;59.95
73240;BME280;61452;40.054;4.110;2023-05-15T01:02:48;101530.06;;;19.92;59.91
73240;BME280;61452;40.054;4.110;2023-05-15T01:07:57;101516.84;;;19.90;60.14
73240;BME280;61452;40.054;4.110;2023-05-15T01:13:02;101504.50;;;19.89;60.15
73240;BME280;61452;40.054;4.110;2023-05-15T01:18:06;101511.53;;;19.90;60.19
73240;BME280;61452;40.054;4.110;2023-05-15T01:23:22;101494.69;;;19.90;60.07
73240;BME280;61452;40.054;4.110;2023-05-15T01:28:33;101489.38;;;19.90;60.13
73240;BME280;61452;40.054;4.110;2023-05-15T01:33:42;101496.28;;;19.92;60.22
73240;BME280;61452;40.054;4.110;2023-05-15T01:38:51;101496.50;;;19.89;60.54
73240;BME280;61452;40.054;4.110;2023-05-15T01:44:04;101493.97;;;19.88;60.71
73240;BME280;61452;40.054;4.110;2023-05-15T01:49:10;101497.47;;;19.88;60.72
73240;BME280;61452;40.054;4.110;2023-05-15T01:54:14;101496.50;;;19.89;60.87
73240;BME280;61452;40.054;4.110;2023-05-15T01:59:19;101500.13;;;19.88;60.68
73240;BME280;61452;40.054;4.110;2023-05-15T02:04:23;101492.16;;;19.88;60.61
73240;BME280;61452;40.054;4.110;2023-05-15T02:09:26;101484.16;;;19.88;60.79
73240;BME280;61452;40.054;4.110;2023-05-15T02:14:31;101494.81;;;19.88;60.75
73240;BME280;61452;40.054;4.110;2023-05-15T02:19:33;101479.69;;;19.89;61.16
73240;BME280;61452;40.054;4.110;2023-05-15T02:24:36;101476.06;;;19.90;60.80
73240;BME280;61452;40.054;4.110;2023-05-15T02:35:13;101466.50;;;19.87;60.91
73240;BME280;61452;40.054;4.110;2023-05-15T02:40:19;101467.34;;;19.88;60.91
73240;BME280;61452;40.054;4.110;2023-05-15T02:45:23;101472.66;;;19.88;60.77
73240;BME280;61452;40.054;4.110;2023-05-15T02:50:27;101476.16;;;19.88;60.76
73240;BME280;61452;40.054;4.110;2023-05-15T02:55:29;101482.47;;;19.87;60.93
73240;BME280;61452;40.054;4.110;2023-05-15T03:00:32;101470.97;;;19.87;60.96
73240;BME280;61452;40.054;4.110;2023-05-15T03:05:34;101467.22;;;19.89;60.71
73240;BME280;61452;40.054;4.110;2023-05-15T03:10:36;101464.44;;;19.91;60.50
73240;BME280;61452;40.054;4.110;2023-05-15T03:15:38;101452.09;;;19.90;60.36
73240;BME280;61452;40.054;4.110;2023-05-15T03:20:41;101446.03;;;19.88;60.32
73240;BME280;61452;40.054;4.110;2023-05-15T03:25:43;101439.88;;;19.87;60.58
73240;BME280;61452;40.054;4.110;2023-05-15T03:30:45;101438.19;;;19.86;60.98
73240;BME280;61452;40.054;4.110;2023-05-15T03:35:47;101444.34;;;19.87;61.10
73240;BME280;61452;40.054;4.110;2023-05-15T03:40:50;101436.38;;;19.87;60.92
73240;BME280;61452;40.054;4.110;2023-05-15T03:45:52;101426.19;;;19.81;60.84
73240;BME280;61452;40.054;4.110;2023-05-15T03:50:54;101433.72;;;19.87;60.70
73240;BME280;61452;40.054;4.110;2023-05-15T03:55:57;101435.38;;;19.88;60.84
73240;BME280;61452;40.054;4.110;2023-05-15T04:00:59;101428.25;;;19.88;61.08
73240;BME280;61452;40.054;4.110;2023-05-15T04:06:01;101419.41;;;19.88;61.05
73240;BME280;61452;40.054;4.110;2023-05-15T04:11:03;101418.59;;;19.87;60.90
73240;BME280;61452;40.054;4.110;2023-05-15T04:16:06;101417.72;;;19.87;60.90
73240;BME280;61452;40.054;4.110;2023-05-15T04:21:09;101423.06;;;19.87;60.65
73240;BME280;61452;40.054;4.110;2023-05-15T04:26:11;101431.91;;;19.87;60.17
73240;BME280;61452;40.054;4.110;2023-05-15T04:31:13;101428.38;;;19.87;59.87
73240;BME280;61452;40.054;4.110;2023-05-15T04:36:15;101441.56;;;19.88;59.48
73240;BME280;61452;40.054;4.110;2023-05-15T04:41:17;101441.34;;;19.91;59.11
73240;BME280;61452;40.054;4.110;2023-05-15T04:46:19;101450.88;;;19.94;58.96
73240;BME280;61452;40.054;4.110;2023-05-15T04:51:21;101440.59;;;19.89;58.91
73240;BME280;61452;40.054;4.110;2023-05-15T04:56:23;101444.97;;;19.90;58.92
73240;BME280;61452;40.054;4.110;2023-05-15T05:01:25;101446.53;;;19.93;58.75
73240;BME280;61452;40.054;4.110;2023-05-15T05:06:27;101446.53;;;19.93;58.41
73240;BME280;61452;40.054;4.110;2023-05-15T05:11:31;101440.59;;;19.89;58.55
73240;BME280;61452;40.054;4.110;2023-05-15T05:16:33;101437.81;;;19.91;58.48
73240;BME280;61452;40.054;4.110;2023-05-15T05:21:35;101443.03;;;19.92;58.28
73240;BME280;61452;40.054;4.110;2023-05-15T05:26:37;101442.88;;;19.94;58.14
73240;BME280;61452;40.054;4.110;2023-05-15T05:31:39;101449.53;;;19.88;58.28
73240;BME280;61452;40.054;4.110;2023-05-15T05:36:42;101432.59;;;19.89;58.21
73240;BME280;61452;40.054;4.110;2023-05-15T05:41:44;101435.03;;;19.92;57.78
73240;BME280;61452;40.054;4.110;2023-05-15T05:46:46;101432.25;;;19.94;57.94
73240;BME280;61452;40.054;4.110;2023-05-15T05:51:48;101439.63;;;19.90;57.86
73240;BME280;61452;40.054;4.110;2023-05-15T05:56:50;101436.00;;;19.91;57.95
73240;BME280;61452;40.054;4.110;2023-05-15T06:01:52;101434.09;;;19.93;57.95
73240;BME280;61452;40.054;4.110;2023-05-15T06:06:55;101444.00;;;19.91;57.81
73240;BME280;61452;40.054;4.110;2023-05-15T06:11:57;101443.16;;;19.91;57.84
73240;BME280;61452;40.054;4.110;2023-05-15T06:17:00;101442.41;;;19.89;57.99
73240;BME280;61452;40.054;4.110;2023-05-15T06:22:02;101433.34;;;19.91;57.65
73240;BME280;61452;40.054;4.110;2023-05-15T06:27:04;101436.75;;;19.93;57.74
73240;BME280;61452;40.054;4.110;2023-05-15T06:32:06;101432.59;;;19.89;57.95
73240;BME280;61452;40.054;4.110;2023-05-15T06:37:09;101446.78;;;19.90;57.81
73240;BME280;61452;40.054;4.110;2023-05-15T06:42:11;101441.34;;;19.91;56.76
73240;BME280;61452;40.054;4.110;2023-05-15T06:47:15;101439.28;;;19.95;56.89
73240;BME280;61452;40.054;4.110;2023-05-15T06:52:17;101429.84;;;19.91;57.28
73240;BME280;61452;40.054;4.110;2023-05-15T06:57:19;101439.41;;;19.93;56.43
73240;BME280;61452;40.054;4.110;2023-05-15T07:02:21;101436.00;;;19.91;55.97
73240;BME280;61452;40.054;4.110;2023-05-15T07:07:23;101429.72;;;19.92;56.29
73240;BME280;61452;40.054;4.110;2023-05-15T07:12:25;101444.09;;;19.90;56.89
73240;BME280;61452;40.054;4.110;2023-05-15T07:17:27;101444.84;;;19.92;56.18
73240;BME280;61452;40.054;4.110;2023-05-15T07:22:29;101446.53;;;19.93;56.37
73240;BME280;61452;40.054;4.110;2023-05-15T07:27:34;101451.88;;;19.93;56.31
73240;BME280;61452;40.054;4.110;2023-05-15T07:32:36;101447.63;;;19.90;56.47
73240;BME280;61452;40.054;4.110;2023-05-15T07:37:39;101451.25;;;19.89;56.67
73240;BME280;61452;40.054;4.110;2023-05-15T07:42:43;101445.22;;;19.87;56.83
73240;BME280;61452;40.054;4.110;2023-05-15T07:47:46;101453.06;;;19.89;56.39
73240;BME280;61452;40.054;4.110;2023-05-15T07:52:49;101448.38;;;19.92;56.18
73240;BME280;61452;40.054;4.110;2023-05-15T07:57:51;101445.91;;;19.89;56.49
73240;BME280;61452;40.054;4.110;2023-05-15T08:02:54;101433.72;;;19.87;56.41
73240;BME280;61452;40.054;4.110;2023-05-15T08:07:57;101434.56;;;19.87;56.30
73240;BME280;61452;40.054;4.110;2023-05-15T08:12:59;101440.38;;;19.92;55.87
73240;BME280;61452;40.054;4.110;2023-05-15T08:18:01;101439.41;;;19.93;56.15
73240;BME280;61452;40.054;4.110;2023-05-15T08:23:08;101429.09;;;19.89;56.16
73240;BME280;61452;40.054;4.110;2023-05-15T08:28:10;101435.16;;;19.91;56.01
73240;BME280;61452;40.054;4.110;2023-05-15T08:33:12;101434.91;;;19.94;55.49
73240;BME280;61452;40.054;4.110;2023-05-15T08:38:14;101429.59;;;19.94;55.62
73240;BME280;61452;40.054;4.110;2023-05-15T08:43:16;101411.41;;;19.88;56.10
73240;BME280;61452;40.054;4.110;2023-05-15T08:48:19;101411.41;;;19.88;55.47
73240;BME280;61452;40.054;4.110;2023-05-15T08:53:22;101408.53;;;19.91;55.25
73240;BME280;61452;40.054;4.110;2023-05-15T08:58:25;101412.03;;;19.91;55.71
73240;BME280;61452;40.054;4.110;2023-05-15T09:03:29;101398.94;;;19.88;56.00
73240;BME280;61452;40.054;4.110;2023-05-15T09:08:32;101395.31;;;19.89;55.74
73240;BME280;61452;40.054;4.110;2023-05-15T09:13:35;101399.69;;;19.90;55.39
73240;BME280;61452;40.054;4.110;2023-05-15T09:18:37;101403.09;;;19.92;55.65
73240;BME280;61452;40.054;4.110;2023-05-15T09:23:41;101404.28;;;19.88;55.82
73240;BME280;61452;40.054;4.110;2023-05-15T09:28:43;101398.94;;;19.88;55.75
73240;BME280;61452;40.054;4.110;2023-05-15T09:33:45;101406.22;;;19.86;55.86
73240;BME280;61452;40.054;4.110;2023-05-15T09:38:47;101407.09;;;19.87;55.45
73240;BME280;61452;40.054;4.110;2023-05-15T09:43:50;101407.69;;;19.90;55.52
73240;BME280;61452;40.054;4.110;2023-05-15T09:48:55;101400.53;;;19.91;56.03
73240;BME280;61452;40.054;4.110;2023-05-15T09:53:57;101402.59;;;19.87;56.19
73240;BME280;61452;40.054;4.110;2023-05-15T09:58:59;101397.28;;;19.87;56.05
73240;BME280;61452;40.054;4.110;2023-05-15T10:04:06;101398.00;;;19.89;55.87
73240;BME280;61452;40.054;4.110;2023-05-15T10:09:08;101398.00;;;19.89;56.35
73240;BME280;61452;40.054;4.110;2023-05-15T10:14:12;101398.25;;;19.86;56.37
73240;BME280;61452;40.054;4.110;2023-05-15T10:19:14;101392.56;;;19.91;55.91
73240;BME280;61452;40.054;4.110;2023-05-15T10:24:19;101399.59;;;19.92;55.89
73240;BME280;61452;40.054;4.110;2023-05-15T10:29:22;101387.13;;;19.92;56.14
73240;BME280;61452;40.054;4.110;2023-05-15T10:34:27;101383.72;;;19.90;56.19
73240;BME280;61452;40.054;4.110;2023-05-15T10:39:30;101389.63;;;19.94;56.13
73240;BME280;61452;40.054;4.110;2023-05-15T10:44:32;101382.50;;;19.94;55.73
73240;BME280;61452;40.054;4.110;2023-05-15T10:49:34;101367.38;;;19.95;55.98
73240;BME280;61452;40.054;4.110;2023-05-15T10:54:36;101375.63;;;19.92;56.16
73240;BME280;61452;40.054;4.110;2023-05-15T10:59:39;101360.59;;;19.91;56.21
73240;BME280;61452;40.054;4.110;2023-05-15T11:04:43;101338.56;;;19.89;56.50
73240;BME280;61452;40.054;4.110;2023-05-15T11:09:45;101342.94;;;19.90;56.23
73240;BME280;61452;40.054;4.110;2023-05-15T11:19:56;101333.72;;;19.94;56.14
73240;BME280;61452;40.054;4.110;2023-05-15T11:25:04;101350.53;;;19.94;56.32
73240;BME280;61452;40.054;4.110;2023-05-15T11:30:16;101340.16;;;19.91;56.32
73240;BME280;61452;40.054;4.110;2023-05-15T11:35:27;101329.38;;;19.93;56.38
73240;BME280;61452;40.054;4.110;2023-05-15T11:40:43;101319.59;;;19.93;56.30
73240;BME280;61452;40.054;4.110;2023-05-15T11:46:08;101330.94;;;19.95;56.41
73240;BME280;61452;40.054;4.110;2023-05-15T11:51:29;101307.81;;;19.96;56.66
73240;BME280;61452;40.054;4.110;2023-05-15T11:56:32;101316.78;;;19.95;56.67
73240;BME280;61452;40.054;4.110;2023-05-15T12:01:44;101320.41;;;19.94;56.76
73240;BME280;61452;40.054;4.110;2023-05-15T12:06:49;101308.78;;;19.95;56.86
73240;BME280;61452;40.054;4.110;2023-05-15T12:11:54;101323.91;;;19.94;57.36
73240;BME280;61452;40.054;4.110;2023-05-15T12:17:00;101321.16;;;19.96;58.09
73240;BME280;61452;40.054;4.110;2023-05-15T12:22:05;101322.00;;;19.96;59.04
73240;BME280;61452;40.054;4.110;2023-05-15T12:27:09;101324.66;;;19.96;59.52
73240;BME280;61452;40.054;4.110;2023-05-15T12:32:12;101313.88;;;19.98;59.89
73240;BME280;61452;40.054;4.110;2023-05-15T12:37:14;101319.22;;;19.98;59.66
73240;BME280;61452;40.054;4.110;2023-05-15T12:42:16;101314.75;;;19.98;59.92
73240;BME280;61452;40.054;4.110;2023-05-15T12:47:25;101312.19;;;19.97;60.17
73240;BME280;61452;40.054;4.110;2023-05-15T12:52:28;101322.72;;;19.98;60.72
73240;BME280;61452;40.054;4.110;2023-05-15T12:57:30;101312.06;;;19.98;60.63
73240;BME280;61452;40.054;4.110;2023-05-15T13:02:32;101309.28;;;20.00;61.06
73240;BME280;61452;40.054;4.110;2023-05-15T13:07:34;101314.59;;;20.00;60.85
73240;BME280;61452;40.054;4.110;2023-05-15T13:12:45;101318.25;;;19.99;60.87
73240;BME280;61452;40.054;4.110;2023-05-15T13:17:47;101322.59;;;20.00;60.50
73240;BME280;61452;40.054;4.110;2023-05-15T13:22:52;101318.97;;;20.01;60.82
73240;BME280;61452;40.054;4.110;2023-05-15T13:27:57;101331.19;;;20.03;60.95
73240;BME280;61452;40.054;4.110;2023-05-15T13:33:00;101325.13;;;20.01;60.86
73240;BME280;61452;40.054;4.110;2023-05-15T13:38:02;101332.16;;;20.02;61.18
73240;BME280;61452;40.054;4.110;2023-05-15T13:43:05;101323.31;;;20.02;60.93
73240;BME280;61452;40.054;4.110;2023-05-15T13:48:09;101325.97;;;20.02;60.93
73240;BME280;61452;40.054;4.110;2023-05-15T13:53:12;101330.34;;;20.03;60.94
73240;BME280;61452;40.054;4.110;2023-05-15T13:58:17;101324.06;;;20.04;60.95
73240;BME280;61452;40.054;4.110;2023-05-15T14:03:19;101324.06;;;20.04;61.26
73240;BME280;61452;40.054;4.110;2023-05-15T14:08:21;101324.91;;;20.04;60.83
73240;BME280;61452;40.054;4.110;2023-05-15T14:13:23;101334.59;;;20.05;60.71
73240;BME280;61452;40.054;4.110;2023-05-15T14:18:25;101332.88;;;20.04;60.75
73240;BME280;61452;40.054;4.110;2023-05-15T14:23:27;101329.28;;;20.05;60.70
73240;BME280;61452;40.054;4.110;2023-05-15T14:28:29;101325.50;;;20.08;60.37
73240;BME280;61452;40.054;4.110;2023-05-15T14:33:31;101320.16;;;20.08;59.97
73240;BME280;61452;40.054;4.110;2023-05-15T14:38:33;101313.78;;;19.99;59.98
73240;BME280;61452;40.054;4.110;2023-05-15T14:43:35;101318.47;;;20.07;59.65
73240;BME280;61452;40.054;4.110;2023-05-15T14:48:37;101300.66;;;20.07;59.54
73240;BME280;61452;40.054;4.110;2023-05-15T14:53:40;101306.00;;;20.07;59.44
73240;BME280;61452;40.054;4.110;2023-05-15T14:58:42;101306.13;;;20.06;59.60
73240;BME280;61452;40.054;4.110;2023-05-15T15:03:45;101300.66;;;20.07;59.52
73240;BME280;61452;40.054;4.110;2023-05-15T15:08:47;101302.50;;;20.07;59.26
73240;BME280;61452;40.054;4.110;2023-05-15T15:13:49;101285.19;;;20.01;59.29
73240;BME280;61452;40.054;4.110;2023-05-15T15:18:51;101301.53;;;20.08;59.35
73240;BME280;61452;40.054;4.110;2023-05-15T15:23:53;101304.91;;;20.10;59.35
73240;BME280;61452;40.054;4.110;2023-05-15T15:28:56;101307.69;;;20.08;59.29
73240;BME280;61452;40.054;4.110;2023-05-15T15:34:01;101302.25;;;20.10;59.37
73240;BME280;61452;40.054;4.110;2023-05-15T15:39:06;101302.25;;;20.10;59.43
73240;BME280;61452;40.054;4.110;2023-05-15T15:44:08;101309.28;;;20.11;59.32
73240;BME280;61452;40.054;4.110;2023-05-15T15:49:10;101292.09;;;20.04;59.14
73240;BME280;61452;40.054;4.110;2023-05-15T15:54:12;101300.44;;;20.10;59.09
73240;BME280;61452;40.054;4.110;2023-05-15T15:59:14;101300.44;;;20.10;58.96
73240;BME280;61452;40.054;4.110;2023-05-15T16:04:17;101300.31;;;20.12;58.81
73240;BME280;61452;40.054;4.110;2023-05-15T16:09:19;101304.66;;;20.13;58.93
73240;BME280;61452;40.054;4.110;2023-05-15T16:14:21;101301.16;;;20.12;58.65
73240;BME280;61452;40.054;4.110;2023-05-15T16:19:24;101301.03;;;20.14;58.82
73240;BME280;61452;40.054;4.110;2023-05-15T16:24:26;101306.25;;;20.15;58.55
73240;BME280;61452;40.054;4.110;2023-05-15T16:29:29;101299.09;;;20.16;58.58
73240;BME280;61452;40.054;4.110;2023-05-15T16:34:31;101295.47;;;20.17;58.72
73240;BME280;61452;40.054;4.110;2023-05-15T16:39:36;101291.00;;;20.17;58.46
73240;BME280;61452;40.054;4.110;2023-05-15T16:44:40;101291.00;;;20.17;58.35
73240;BME280;61452;40.054;4.110;2023-05-15T16:49:42;101293.50;;;20.19;58.42
73240;BME280;61452;40.054;4.110;2023-05-15T16:54:47;101287.94;;;20.22;58.08
73240;BME280;61452;40.054;4.110;2023-05-15T16:59:49;101279.00;;;20.23;57.99
73240;BME280;61452;40.054;4.110;2023-05-15T17:04:51;101277.28;;;20.22;58.07
73240;BME280;61452;40.054;4.110;2023-05-15T17:09:54;101270.16;;;20.23;58.13
73240;BME280;61452;40.054;4.110;2023-05-15T17:14:56;101270.03;;;20.24;57.71
73240;BME280;61452;40.054;4.110;2023-05-15T17:19:58;101278.84;;;20.25;57.68
73240;BME280;61452;40.054;4.110;2023-05-15T17:25:03;101267.38;;;20.24;57.46
73240;BME280;61452;40.054;4.110;2023-05-15T17:30:08;101276.06;;;20.26;57.31
73240;BME280;61452;40.054;4.110;2023-05-15T17:35:11;101270.72;;;20.26;57.18
73240;BME280;61452;40.054;4.110;2023-05-15T17:40:13;101272.44;;;20.27;56.80
73240;BME280;61452;40.054;4.110;2023-05-15T17:45:15;101270.50;;;20.29;56.74
73240;BME280;61452;40.054;4.110;2023-05-15T17:50:17;101267.00;;;20.29;56.87
73240;BME280;61452;40.054;4.110;2023-05-15T17:55:19;101266.13;;;20.28;56.64
73240;BME280;61452;40.054;4.110;2023-05-15T18:00:22;101274.97;;;20.29;56.66
73240;BME280;61452;40.054;4.110;2023-05-15T18:05:24;101273.16;;;20.29;56.56
73240;BME280;61452;40.054;4.110;2023-05-15T18:10:27;101262.50;;;20.29;56.45
73240;BME280;61452;40.054;4.110;2023-05-15T18:15:29;101266.03;;;20.30;56.44
73240;BME280;61452;40.054;4.110;2023-05-15T18:20:35;101263.34;;;20.30;56.54
73240;BME280;61452;40.054;4.110;2023-05-15T18:25:37;101269.66;;;20.29;56.50
73240;BME280;61452;40.054;4.110;2023-05-15T18:30:40;101264.31;;;20.29;56.31
73240;BME280;61452;40.054;4.110;2023-05-15T18:35:42;101276.69;;;20.30;56.41
73240;BME280;61452;40.054;4.110;2023-05-15T18:40:47;101272.31;;;20.29;56.53
73240;BME280;61452;40.054;4.110;2023-05-15T18:45:49;101265.28;;;20.28;56.46
73240;BME280;61452;40.054;4.110;2023-05-15T18:50:52;101261.78;;;20.27;56.25
73240;BME280;61452;40.054;4.110;2023-05-15T18:55:55;101265.28;;;20.28;56.29
73240;BME280;61452;40.054;4.110;2023-05-15T19:00:57;101269.66;;;20.29;56.23
73240;BME280;61452;40.054;4.110;2023-05-15T19:05:59;101274.13;;;20.28;55.95
73240;BME280;61452;40.054;4.110;2023-05-15T19:11:01;101268.91;;;20.27;56.00
73240;BME280;61452;40.054;4.110;2023-05-15T19:16:03;101281.41;;;20.26;55.86
73240;BME280;61452;40.054;4.110;2023-05-15T19:21:06;101278.72;;;20.26;55.94
73240;BME280;61452;40.054;4.110;2023-05-15T19:26:08;101282.25;;;20.27;55.70
73240;BME280;61452;40.054;4.110;2023-05-15T19:31:11;101281.41;;;20.26;55.76
73240;BME280;61452;40.054;4.110;2023-05-15T19:36:31;101284.78;;;20.28;55.70
73240;BME280;61452;40.054;4.110;2023-05-15T19:41:33;101272.44;;;20.27;55.67
73240;BME280;61452;40.054;4.110;2023-05-15T19:46:35;101279.56;;;20.27;55.97
73240;BME280;61452;40.054;4.110;2023-05-15T19:51:37;101284.16;;;20.25;55.45
73240;BME280;61452;40.054;4.110;2023-05-15T19:56:41;101277.88;;;20.26;55.54
73240;BME280;61452;40.054;4.110;2023-05-15T20:01:43;101280.53;;;20.26;55.67
73240;BME280;61452;40.054;4.110;2023-05-15T20:06:45;101279.69;;;20.25;55.56
73240;BME280;61452;40.054;4.110;2023-05-15T20:11:47;101295.69;;;20.25;55.43
73240;BME280;61452;40.054;4.110;2023-05-15T20:16:49;101297.38;;;20.26;55.67
73240;BME280;61452;40.054;4.110;2023-05-15T20:21:51;101299.19;;;20.26;55.77
73240;BME280;61452;40.054;4.110;2023-05-15T20:26:54;101301.00;;;20.25;55.71
73240;BME280;61452;40.054;4.110;2023-05-15T20:31:56;101305.47;;;20.25;55.55
73240;BME280;61452;40.054;4.110;2023-05-15T20:36:58;101304.53;;;20.26;55.88
73240;BME280;61452;40.054;4.110;2023-05-15T20:42:00;101316.13;;;20.25;55.80
73240;BME280;61452;40.054;4.110;2023-05-15T20:47:02;101320.66;;;20.24;55.78
73240;BME280;61452;40.054;4.110;2023-05-15T20:52:04;101323.44;;;20.23;55.63
73240;BME280;61452;40.054;4.110;2023-05-15T20:57:07;101314.97;;;20.17;55.92
73240;BME280;61452;40.054;4.110;2023-05-15T21:02:09;101315.31;;;20.24;55.80
73240;BME280;61452;40.054;4.110;2023-05-15T21:07:12;101317.13;;;20.24;56.01
73240;BME280;61452;40.054;4.110;2023-05-15T21:12:14;101310.09;;;20.23;55.93
73240;BME280;61452;40.054;4.110;2023-05-15T21:17:16;101322.47;;;20.24;56.19
73240;BME280;61452;40.054;4.110;2023-05-15T21:22:18;101326.78;;;20.25;56.14
73240;BME280;61452;40.054;4.110;2023-05-15T21:27:20;101348.97;;;20.25;56.31
73240;BME280;61452;40.054;4.110;2023-05-15T21:32:22;101349.09;;;20.24;56.45
73240;BME280;61452;40.054;4.110;2023-05-15T21:37:25;101325.97;;;20.24;56.72
73240;BME280;61452;40.054;4.110;2023-05-15T21:42:28;101335.91;;;20.22;56.51
73240;BME280;61452;40.054;4.110;2023-05-15T21:47:31;101323.31;;;20.24;56.52
73240;BME280;61452;40.054;4.110;2023-05-15T21:52:33;101327.78;;;20.24;56.58
73240;BME280;61452;40.054;4.110;2023-05-15T21:57:35;101317.25;;;20.22;56.61
73240;BME280;61452;40.054;4.110;2023-05-15T22:02:37;101318.81;;;20.25;56.83
73240;BME280;61452;40.054;4.110;2023-05-15T22:07:39;101317.25;;;20.22;56.88
73240;BME280;61452;40.054;4.110;2023-05-15T22:12:42;101315.44;;;20.23;56.89
73240;BME280;61452;40.054;4.110;2023-05-15T22:17:45;101318.00;;;20.24;56.87
73240;BME280;61452;40.054;4.110;2023-05-15T22:22:47;101318.59;;;20.16;57.36
73240;BME280;61452;40.054;4.110;2023-05-15T22:27:49;101334.94;;;20.23;57.58
73240;BME280;61452;40.054;4.110;2023-05-15T22:32:51;101327.66;;;20.25;57.30
73240;BME280;61452;40.054;4.110;2023-05-15T22:37:53;101320.50;;;20.26;57.95
73240;BME280;61452;40.054;4.110;2023-05-15T22:42:55;101326.78;;;20.25;58.18
73240;BME280;61452;40.054;4.110;2023-05-15T22:47:57;101305.47;;;20.25;58.83
73240;BME280;61452;40.054;4.110;2023-05-15T22:52:59;101303.81;;;20.24;58.35
73240;BME280;61452;40.054;4.110;2023-05-15T22:58:01;101301.00;;;20.25;58.21
73240;BME280;61452;40.054;4.110;2023-05-15T23:03:04;101295.81;;;20.24;59.00
73240;BME280;61452;40.054;4.110;2023-05-15T23:08:06;101305.47;;;20.25;59.36
73240;BME280;61452;40.054;4.110;2023-05-15T23:13:10;101297.50;;;20.25;58.94
73240;BME280;61452;40.054;4.110;2023-05-15T23:18:12;101299.34;;;20.24;58.94
73240;BME280;61452;40.054;4.110;2023-05-15T23:23:14;101282.50;;;20.24;59.33
73240;BME280;61452;40.054;4.110;2023-05-15T23:28:16;101288.69;;;20.24;59.12
73240;BME280;61452;40.054;4.110;2023-05-15T23:33:19;101279.84;;;20.24;58.68
73240;BME280;61452;40.054;4.110;2023-05-15T23:38:21;101273.66;;;20.23;58.93
73240;BME280;61452;40.054;4.110;2023-05-15T23:43:24;101269.19;;;20.24;59.03
73240;BME280;61452;40.054;4.110;2023-05-15T23:48:26;101265.69;;;20.23;59.29
73240;BME280;61452;40.054;4.110;2023-05-15T23:53:29;101270.84;;;20.25;58.78
73240;BME280;61452;40.054;4.110;2023-05-15T23:58:32;101262.03;;;20.24;59.06
